Cisco Butte, California Weather observations

Data are for observation ending at time listed.
 Day   Time    Ave.   Ave.  Ave.  Vector   Max.   Stn.    Total    Solar   Ave.   Snow 
  of    of     Air    Rel.  Wind   Wind    Wind   Baro.  Precip.   Rad.    Soil   Depth
Year   Day     Temp.  Hum.  Speed  Dir.    Gust   Pres.                    Temp.       
2016   (PST)    F      %     mph   deg.    mph     mb.     in.     W/m2     F      in. 
---------------------------------------------------------------------------------------  
 211   20:50   72.0    27    0.6   292      2.3   826.0    0.00       0    999.0   80.4
 211   21:00   69.8    32    3.8    91      5.3   826.0    0.00       0    999.0   63.9
 211   21:10   69.1    33    4.0    91      5.5   826.0    0.00       0    999.0   55.7
 211   21:20   68.6    34    4.8   100      7.0   826.0    0.00       0    999.0   47.3
 211   21:30   67.6    35    5.9   110      8.3   826.0    0.00       0    999.0   -0.5
 211   21:40   67.1    36    4.2   104      6.7   826.0    0.00       0    999.0   72.4
 211   21:50   67.1    36    4.8    95      7.7   826.0    0.00       0    999.0   80.0
 211   22:00   66.6    37    6.5   102      9.2   826.0    0.00       0    999.0   64.0
 211   22:10   66.1    38    6.8    99      9.6   826.0    0.00       0    999.0   55.9
 211   22:20   65.9    38    8.2   112     12.3   826.0    0.00       0    999.0   31.8
 211   22:30   65.7    39    8.5   110     12.6   826.0    0.00       0    999.0   39.4
 211   22:40   65.9    37    6.6   106      9.1   826.0    0.00       0    999.0   48.3
 211   22:50   66.1    37    6.1   103      9.0   826.0    0.00       0    999.0   63.5
 211   23:00   65.5    38    4.9   100      8.9   826.0    0.00       0    999.0   64.5
 211   23:10   65.8    37    4.6    94      6.5   826.0    0.00       0    999.0   72.1
 211   23:20   65.6    38    4.7    86      6.4   826.0    0.00       0    999.0   72.1
 211   23:30   65.4    38    5.4    89      8.1   826.0    0.00       0    999.0   80.1
 211   23:40   64.7    38    5.1    96      7.6   826.0    0.00       0    999.0   64.1
 211   23:50   64.8    38    4.6    94      7.7   826.0    0.00       0    999.0   64.1
 212    0:00   64.9    38    4.7    95      7.5   826.0    0.00       0    999.0   72.2
 212    0:10   64.9    37    4.3    89      6.9   826.0    0.00       0    999.0   80.2
 212    0:20   65.3    36    4.2    94      6.9   826.0    0.00       0    999.0   80.2
 212    0:30   64.8    37    4.5    86      8.0   826.0    0.00       0    999.0   80.1
 212    0:40   64.3    38    4.6    81      6.6   826.0    0.00       0    999.0   72.2
 212    0:50   64.6    37    4.3    82      7.6   826.0    0.00       0    999.0   80.2
 212    1:00   64.5    37    4.5    98      8.3   825.0    0.00       0    999.0   80.2
 212    1:10   64.1    38    5.2    91      8.4   825.0    0.00       0    999.0   64.0
 212    1:20   63.9    38    6.0    97      9.9   825.0    0.00       0    999.0   31.9
 212    1:30   64.5    36    6.5   105      9.6   825.0    0.00       0    999.0   80.2
 212    1:40   64.6    36    5.9    96      9.1   825.0    0.00       0    999.0   72.0
 212    1:50   64.2    37    5.9   101      9.2   825.0    0.00       0    999.0   72.1
 212    2:00   63.6    38    5.4    95      8.6   825.0    0.00       0    999.0   80.2
 212    2:10   63.4    38    5.6    88      8.9   825.0    0.00       0    999.0   55.9
 212    2:20   63.6    37    5.7    91      7.9   825.0    0.00       0    999.0   64.1
 212    2:30   63.9    37    5.8    98     10.0   825.0    0.00       0    999.0   80.1
 212    2:40   63.4    37    6.2   103      9.3   825.0    0.00       0    999.0   56.0
 212    2:50   63.6    37    4.9    90      8.6   825.0    0.00       0    999.0   64.0
 212    3:00   63.6    37    4.6    93      6.9   825.0    0.00       0    999.0   72.1
 212    3:10   63.1    38    5.0    93      7.6   825.0    0.00       0    999.0   72.1
 212    3:20   63.3    37    4.8    92      7.5   825.0    0.00       0    999.0   64.0
 212    3:30   63.4    36    4.7    87      7.7   825.0    0.00       0    999.0   71.6
 212    3:40   63.6    36    5.0    89      7.6   825.0    0.00       0    999.0   40.3
 212    3:50   64.0    35    5.3    86      8.1   825.0    0.00       0    999.0   64.0
 212    4:00   64.3    34    5.0    88      7.7   825.0    0.00       0    999.0   72.1
 212    4:10   63.9    35    5.1    88      8.2   825.0    0.00       0    999.0   80.2
 212    4:20   63.6    36    5.6    96      8.4   825.0    0.00       0    999.0   72.1
 212    4:30   63.5    36    4.9    98      7.5   825.0    0.00       0    999.0   79.7
 212    4:40   62.9    37    5.4    91      9.0   825.0    0.00       0    999.0   72.1
 212    4:50   63.0    37    5.4    95      8.9   825.0    0.00       0    999.0   64.1
 212    5:00   63.1    37    5.0    94      9.3   825.0    0.00       1    999.0   64.4
 212    5:10   63.0    37    5.2    87      8.4   825.0    0.00       2    999.0   72.1
 212    5:20   63.2    36    4.5    90      7.5   825.0    0.00       4    999.0   48.0
 212    5:30   63.7    35    5.5    96      9.0   825.0    0.00       8    999.0   23.7
 212    5:40   63.4    36    5.5    84      7.5   825.0    0.00      17    999.0   31.8
 212    5:50   63.4    36    5.5    95      8.5   825.0    0.00      28    999.0   72.0
 212    6:00   63.2    37    6.1   101     11.8   825.0    0.00      41    999.0   39.3
 212    6:10   63.2    37    6.4    95     11.7   825.0    0.00      49    999.0   23.6
 212    6:20   64.1    36    8.0   104     13.0   825.0    0.00      70    999.0   16.0
 212    6:30   64.8    35    7.2   109     10.9   825.0    0.00      95    999.0   55.4
 212    6:40   66.0    34    6.2   103      9.8   825.0    0.00     125    999.0   64.2
 212    6:50   67.0    34    5.7   101      9.4   825.0    0.00     146    999.0   71.4
 212    7:00   67.2    33    6.7    99     10.0   825.0    0.00     167    999.0   48.0
 212    7:10   68.3    32    5.5   102      8.6   825.0    0.00     188    999.0   63.1
 212    7:20   70.0    31    3.7    99      6.4   825.0    0.00     206    999.0   64.1
 212    7:30   71.3    30    3.4    92      4.8   825.0    0.00     225    999.0   79.9
 212    7:40   73.2    28    1.9    79      4.9   825.0    0.00     248    999.0   79.9
 212    7:50   74.7    28    2.0   113      3.6   825.0    0.00     266    999.0   71.8
 212    8:00   76.2    27    1.4   184      5.2   825.0    0.00     285    999.0   71.6
 212    8:10   77.7    24    2.8   188      7.0   825.0    0.00     305    999.0   31.0
 212    8:20   76.4    24    4.7   180      7.8   825.0    0.00     326    999.0   47.2
 212    8:30   76.4    24    4.8   150      9.8   825.0    0.00     342    999.0   22.6
 212    8:40   76.7    24    4.6   158      9.2   825.0    0.00     368    999.0   23.5
 212    8:50   77.8    24    3.6   199      9.6   825.0    0.00     395    999.0   30.6
 212    9:00   77.4    24    5.4   169     10.7   825.0    0.00     413    999.0   39.7
 212    9:10   77.7    23    4.6   165     11.0   825.0    0.00     426    999.0   55.0
 212    9:20   78.8    23    7.6   265     13.8   825.0    0.00     447    999.0   56.0
 212    9:30   78.5    23    9.0   264     15.3   825.0    0.00     461    999.0   63.7
 212    9:40   78.1    23    7.4   249     13.7   825.0    0.00     468    999.0   63.6
 212    9:50   78.6    23    5.1   211     13.3   825.0    0.00     486    999.0   31.3
 212   10:00   79.0    23    5.0   211     11.5   825.0    0.00     494    999.0   30.7
 212   10:10   79.3    23    5.1   214     11.9   825.0    0.00     516    999.0   14.9
 212   10:20   80.0    23    5.9   229     14.2   825.0    0.00     524    999.0   23.1
 212   10:30   79.7    23    6.6   237     14.8   825.0    0.00     539    999.0   39.8
 212   10:40   80.4    22   10.1   265     17.0   825.0    0.00     539    999.0   47.3
 212   10:50   79.6    23    8.0   266     19.3   825.0    0.00     563    999.0   79.8
 212   11:00   80.0    23   11.2   265     17.8   825.0    0.00     570    999.0   55.6
 212   11:10   79.4    23   11.4   280     22.1   825.0    0.00     572    999.0   71.8
 212   11:20   78.9    24   12.7   273     19.2   825.0    0.00     580    999.0   71.9
 212   11:30   79.1    24   13.4   280     20.5   825.0    0.00     593    999.0   71.9
 212   11:40   79.5    24   10.4   269     17.8   825.0    0.00     587    999.0   63.8
 212   11:50   79.9    24   11.8   281     19.8   825.0    0.00     590    999.0   55.7
 212   12:00   80.3    24   11.9   269     20.1   825.0    0.00     596    999.0   79.9
 212   12:10   79.9    22   13.1   267     22.0   825.0    0.00     602    999.0   71.9
 212   12:20   80.4    23   10.8   269     18.8   825.0    0.00     599    999.0   55.8
 212   12:30   80.2    24   12.0   264     21.2   825.0    0.00     600    999.0   47.8
 212   12:40   80.4    23    9.6   263     19.8   825.0    0.00     596    999.0   71.7
 212   12:50   80.9    23   10.7   270     17.0   825.0    0.00     590    999.0   55.6
 212   13:00   80.3    23   13.7   269     23.7   825.0    0.00     589    999.0   55.8
 212   13:10   80.2    23   11.2   263     23.1   825.0    0.00     582    999.0   63.7
 212   13:20   80.5    23   12.1   261     24.0   825.0    0.00     574    999.0   79.4
 212   13:30   80.2    24   12.1   269     20.8   825.0    0.00     571    999.0   72.0
 212   13:40   80.3    24   12.1   277     22.0   825.0    0.00     560    999.0   64.3
 212   13:50   80.8    23   11.5   272     20.1   825.0    0.00     550    999.0   55.8
 212   14:00   79.9    23   16.2   275     23.5   825.0    0.00     542    999.0   63.3
 212   14:10   79.6    23   13.8   272     23.8   825.0    0.00     532    999.0   72.4
 212   14:20   80.3    23   13.9   274     20.9   825.0    0.00     522    999.0   63.4
 212   14:30   80.3    22   14.0   282     23.8   825.0    0.00     509    999.0   56.2
 212   14:40   79.6    22   13.2   277     22.6   825.0    0.00     497    999.0   47.7
 212   14:50   80.4    21   12.6   271     20.5   825.0    0.00     483    999.0   31.2
 212   15:00   80.5    20   12.9   270     20.5   825.0    0.00     468    999.0   56.2
 212   15:10   80.0    20   14.4   274     22.9   825.0    0.00     446    999.0   55.7
 212   15:20   80.0    20   12.6   273     21.9   825.0    0.00     428    999.0   55.1
 212   15:30   79.9    20   15.1   280     25.4   825.0    0.00     412    999.0   39.6
 212   15:40   79.3    21   13.7   280     19.7   825.0    0.00     262    999.0   39.6
 212   15:50   79.7    20   11.2   276     20.4   825.0    0.00      39    999.0   39.6
 212   16:00   79.2    20   12.5   281     21.0   825.0    0.00     338    999.0   31.6
 212   16:10   78.9    21   12.2   275     19.3   825.0    0.00     333    999.0   32.0
 212   16:20   79.6    20    9.9   260     20.0   825.0    0.00     313    999.0   63.3
 212   16:30   79.1    20   12.6   276     20.9   825.0    0.00     285    999.0   64.2
 212   16:40   78.5    21   11.1   271     19.5   825.0    0.00     263    999.0   63.8
 212   16:50   78.3    21   12.7   273     19.2   825.0    0.00     243    999.0   63.7
 212   17:00   77.4    22   11.6   280     16.7   825.0    0.00     220    999.0   71.9
 212   17:10   77.8    22    9.9   270     16.2   825.0    0.00     205    999.0   71.9
 212   17:20   77.5    22    9.9   276     16.5   825.0    0.00     100    999.0   80.0
 212   17:30   77.0    22   11.9   265     17.5   825.0    0.00      24    999.0   79.9
 212   17:40   76.2    23   11.4   264     19.1   824.0    0.00      22    999.0   63.9
 212   17:50   76.3    23    8.7   258     13.5   824.0    0.00      20    999.0   63.9
 212   18:00   76.2    24    7.9   271     11.5   824.0    0.00      24    999.0   80.1
 212   18:10   75.4    24    9.4   267     13.9   824.0    0.00      70    999.0   80.1
 212   18:20   75.4    25    7.1   263     12.1   824.0    0.00      59    999.0   80.2
 212   18:30   74.9    25    7.4   273     10.3   824.0    0.00      25    999.0   80.2
 212   18:40   73.2    27    7.4   281     10.4   824.0    0.00      29    999.0   80.2
 212   18:50   72.3    28    7.2   283     10.5   824.0    0.00      14    999.0   80.3
 212   19:00   71.8    29    5.9   279      7.8   824.0    0.00       9    999.0   80.2
 212   19:10   70.8    30    5.4   283      7.9   824.0    0.00       6    999.0   79.9
 212   19:20   70.3    30    3.8   286      5.0   825.0    0.00       3    999.0   79.8
 212   19:30   69.9    31    3.2   277      4.6   825.0    0.00       1    999.0   80.0
 212   19:40   69.0    32    1.9   268      2.9   825.0    0.00       0    999.0   79.8
 212   19:50   68.5    32    1.0   260      2.2   825.0    0.00       0    999.0   79.9
 212   20:00   68.7    31    1.0   268      1.8   825.0    0.00       0    999.0   79.9
 212   20:10   68.8    31    1.8   277      2.3   825.0    0.00       0    999.0   79.8
 212   20:20   68.7    31    1.1   276      2.0   825.0    0.00       0    999.0   79.9
 212   20:30   68.6    32    1.9    86      3.4   825.0    0.00       0    999.0   31.5
 212   20:40   68.4    32    2.1    88      3.1   825.0    0.00       0    999.0   39.8

Return to Cisco Butte graphs page.


Western Regional Climate Center,wrcc@dri.edu